Impacts METAR Board
IDs:

KACT - Waco Rgnl, TX, US

Updated at: 1200 UTC 16 Jul 2019
Potential Impact None Slight Moderate High
Time 16/00Z 16/01Z 16/02Z 16/03Z 16/04Z 16/05Z 16/06Z 16/07Z 16/08Z 16/09Z 16/10Z 16/11Z 16/12Z
Temp94 92 90 87 86 85 84 83 82 81 80 79 79
Dewpt70 71 73 75 73 74 75 75 74 74 73 74 74
Altim29.85 29.85 29.87 29.89 29.91 29.91 29.91 29.91 29.92 29.92 29.93 29.95 29.97
VIS10 10 10 10 10 10 10 10 10 10 10 10 10
CIG-- -- -- -- 70 -- -- -- -- -- -- -- --
CoverCLRCLRCLRCLRBKNCLRCLRCLRCLRCLRCLRCLRCLR
FltCatVFRVFRVFRVFRVFRVFRVFRVFRVFRVFRVFRVFRVFR
WX--------------------------
WDir140140150150170160170190190190190180190
WSpd9 8 12 8 10 10 13 14 13 15 13 11 11
WGst-- -- -- -- -- -- -- 21 -- 20 -- -- --
Raw hourly METARs
KACT 152351Z 14009KT 10SM CLR 34/21 A2985 RMK AO2 SLPNO T03440211 56014
KACT 160051Z 14008KT 10SM CLR 33/22 A2985 RMK AO2 SLP100 T03330217 $
KACT 160151Z 15012KT 10SM CLR 32/23 A2987 RMK AO2 SLPNO T03220228 $
KACT 160251Z 15008KT 10SM CLR 31/24 A2989 RMK AO2 SLPNO T03060239 53013 $
KACT 160351Z 17010KT 10SM BKN070 30/23 A2991 RMK AO2 SLP118 T03000228 $
KACT 160451Z 16010KT 10SM CLR 29/23 A2991 RMK AO2 SLP119 T02940233 $
KACT 160551Z AUTO 17013KT 10SM CLR 29/24 A2991 RMK AO2 SLP120 T02890239 10344 20283 51008 $
KACT 160651Z AUTO 19014G21KT 10SM CLR 28/24 A2991 RMK AO2 SLP120 T02830239 $
KACT 160751Z AUTO 19013KT 10SM CLR 28/23 A2992 RMK AO2 SLP122 T02780233 $
KACT 160851Z AUTO 19015G20KT 10SM CLR 27/23 A2992 RMK AO2 SLP124 T02720233 53004 $
KACT 160951Z AUTO 19013KT 10SM CLR 27/23 A2993 RMK AO2 SLP127 T02670228 $
KACT 161051Z 18011KT 10SM CLR 26/23 A2995 RMK AO2 SLP134 T02610233 $
KACT 161151Z 19011KT 10SM CLR 26/23 A2997 RMK AO2 SLP138 T02610233 10289 20261 53014 $